createdAt,value
2017-11-11T00:00:59.986Z,94.01
2017-11-11T00:03:30.999Z,94.43
2017-11-11T00:06:01.110Z,93.90
2017-11-11T00:08:33.015Z,94.19
2017-11-11T00:11:03.595Z,93.41
2017-11-11T00:13:36.614Z,93.49
2017-11-11T00:16:06.787Z,94.03
2017-11-11T00:18:38.046Z,93.50
2017-11-11T00:21:11.091Z,93.81
2017-11-11T00:23:41.205Z,93.80
2017-11-11T00:26:11.320Z,94.03
2017-11-11T00:28:41.325Z,94.14
2017-11-11T00:31:11.229Z,95.05
2017-11-11T00:33:41.204Z,95.46
2017-11-11T00:36:12.093Z,96.07
2017-11-11T00:38:42.100Z,95.67
2017-11-11T00:41:12.512Z,96.06
2017-11-11T00:46:17.025Z,96.17
2017-11-11T00:48:47.036Z,95.17
2017-11-11T00:51:17.064Z,95.64
2017-11-11T00:53:46.963Z,95.55
2017-11-11T00:56:17.815Z,95.11
2017-11-11T00:58:47.952Z,95.26
2017-11-11T01:01:18.164Z,95.00
2017-11-11T01:03:48.832Z,95.88
2017-11-11T01:06:18.636Z,96.83
2017-11-11T01:08:48.655Z,96.22
2017-11-11T01:11:19.092Z,96.64
2017-11-11T01:13:48.980Z,95.93
2017-11-11T01:16:20.193Z,95.52
2017-11-11T01:18:50.212Z,95.21
2017-11-11T01:21:20.750Z,94.16
2017-11-11T01:23:50.831Z,95.31
2017-11-11T01:26:21.621Z,95.49
2017-11-11T01:28:51.568Z,95.06
2017-11-11T01:31:23.099Z,95.85
2017-11-11T01:33:52.813Z,95.21
2017-11-11T01:36:23.408Z,95.77
2017-11-11T01:38:54.561Z,95.32
2017-11-11T01:41:28.326Z,95.16
2017-11-11T01:43:58.483Z,94.88
2017-11-11T01:46:28.726Z,94.55
2017-11-11T01:48:58.691Z,94.57
2017-11-11T01:51:28.730Z,94.94
2017-11-11T01:53:59.508Z,95.58
2017-11-11T01:56:29.469Z,95.52
2017-11-11T01:58:59.960Z,95.42
2017-11-11T02:01:30.859Z,95.84
2017-11-11T02:04:00.738Z,96.02
2017-11-11T02:06:30.152Z,95.48
2017-11-11T02:09:00.194Z,95.92
2017-11-11T02:11:30.142Z,96.03
2017-11-11T02:14:00.717Z,95.71
2017-11-11T02:16:30.700Z,95.42
2017-11-11T02:19:01.828Z,95.03
2017-11-11T02:21:32.699Z,95.00
2017-11-11T02:24:03.235Z,94.82
2017-11-11T02:26:33.997Z,95.23
2017-11-11T02:29:03.982Z,95.55
2017-11-11T02:31:34.302Z,95.81
2017-11-11T02:37:04.332Z,92.81
2017-11-11T02:39:34.296Z,90.54
2017-11-11T02:42:03.986Z,88.60
2017-11-11T02:44:33.939Z,87.59
2017-11-11T02:47:04.094Z,87.25
2017-11-11T02:49:34.383Z,87.81
2017-11-11T02:52:06.792Z,88.81
2017-11-11T02:54:38.325Z,87.94
2017-11-11T02:57:09.536Z,87.78
2017-11-11T03:15:07.037Z,88.64
2017-11-11T03:17:37.592Z,88.68
2017-11-11T03:20:12.180Z,88.47
2017-11-11T03:30:59.032Z,89.77
2017-11-11T03:33:30.984Z,89.03
2017-11-11T03:36:02.341Z,89.07
2017-11-11T03:50:13.527Z,89.57
2017-11-11T04:05:16.862Z,89.40
2017-11-11T04:24:37.683Z,88.00
2017-11-11T04:27:09.152Z,88.83
2017-11-11T04:29:39.974Z,88.83
2017-11-11T04:32:09.844Z,88.95
2017-11-11T04:34:40.556Z,89.55
2017-11-11T04:37:12.351Z,88.74
2017-11-11T04:39:42.743Z,88.95
2017-11-11T04:50:05.387Z,88.91
2017-11-11T04:55:09.026Z,88.78
2017-11-11T04:57:40.086Z,88.84
2017-11-11T05:00:11.111Z,88.53
2017-11-11T05:18:18.244Z,89.02
2017-11-11T05:20:50.435Z,87.97
2017-11-11T05:28:30.923Z,86.56
2017-11-11T05:44:21.282Z,82.55
2017-11-11T05:46:55.064Z,83.00
2017-11-11T05:49:28.921Z,82.08
2017-11-11T05:51:58.695Z,81.93
2017-11-11T05:54:30.372Z,82.54
2017-11-11T05:57:00.571Z,82.57
2017-11-11T05:59:33.379Z,82.86
2017-11-11T06:02:03.980Z,83.44
2017-11-11T06:04:34.713Z,83.20
2017-11-11T06:07:04.786Z,83.19
2017-11-11T06:09:35.001Z,82.70
2017-11-11T06:14:43.038Z,82.12
2017-11-11T06:17:12.968Z,81.45
2017-11-11T06:19:43.084Z,81.83
2017-11-11T06:52:05.836Z,78.52
2017-11-11T07:18:54.972Z,75.75
2017-11-11T07:24:02.980Z,75.92
2017-11-11T07:32:24.537Z,74.35
2017-11-11T07:34:54.566Z,72.74
2017-11-11T07:37:24.558Z,72.36
2017-11-11T07:39:54.630Z,73.75
2017-11-11T07:42:24.946Z,73.75
2017-11-11T07:44:55.256Z,74.50
2017-11-11T07:47:25.748Z,75.08
2017-11-11T07:49:56.053Z,75.73
2017-11-11T07:52:25.942Z,75.87
2017-11-11T07:54:55.805Z,75.83
2017-11-11T07:57:25.676Z,76.96
2017-11-11T07:59:55.790Z,75.17
2017-11-11T08:02:26.785Z,75.74
2017-11-11T08:04:58.014Z,77.17
2017-11-11T08:07:28.353Z,75.89
2017-11-11T08:09:58.101Z,76.25
2017-11-11T08:12:27.846Z,75.86
2017-11-11T08:14:57.668Z,74.80
2017-11-11T08:17:27.421Z,74.80
2017-11-11T08:19:57.269Z,72.29
2017-11-11T08:22:27.761Z,73.38
2017-11-11T08:24:57.458Z,74.86
2017-11-11T08:27:27.512Z,75.71
2017-11-11T08:29:58.680Z,76.17
2017-11-11T08:35:02.632Z,75.84
2017-11-11T08:37:32.501Z,74.36
2017-11-11T08:40:02.601Z,73.50
2017-11-11T08:42:32.699Z,72.70
2017-11-11T08:45:02.983Z,62.32
2017-11-11T08:47:33.354Z,57.42
2017-11-11T08:50:04.284Z,54.84
2017-11-11T08:52:34.573Z,59.37
2017-11-11T08:55:04.621Z,61.39
2017-11-11T08:57:36.140Z,66.72
2017-11-11T09:00:07.087Z,67.63
2017-11-11T09:02:36.923Z,69.19
2017-11-11T09:05:06.795Z,67.76
2017-11-11T09:07:36.990Z,68.58
2017-11-11T09:10:06.906Z,69.96
2017-11-11T09:12:42.613Z,70.62
2017-11-11T09:15:19.287Z,69.64
2017-11-11T09:17:50.229Z,62.34
2017-11-11T09:20:20.519Z,55.65
2017-11-11T09:22:50.545Z,47.93
2017-11-11T09:25:20.657Z,44.89
2017-11-11T09:27:50.900Z,42.93
2017-11-11T09:30:22.043Z,38.93
2017-11-11T09:32:52.785Z,38.53
2017-11-11T09:35:22.964Z,40.48
2017-11-11T09:37:52.623Z,41.41
2017-11-11T09:40:22.899Z,42.49
2017-11-11T09:42:55.247Z,43.53
2017-11-11T10:04:55.010Z,57.69
2017-11-11T10:07:25.401Z,56.76
2017-11-11T10:09:56.630Z,55.24
2017-11-11T10:12:29.010Z,51.30
2017-11-11T10:15:00.357Z,51.15
2017-11-11T10:17:31.665Z,51.12
2017-11-11T10:20:03.009Z,49.91
2017-11-11T10:26:03.655Z,51.90
2017-11-11T10:28:37.970Z,48.63
2017-11-11T10:31:08.498Z,49.77
2017-11-11T10:33:39.159Z,50.29
2017-11-11T10:36:09.681Z,53.21
2017-11-11T10:38:41.230Z,53.28
2017-11-11T10:41:12.372Z,54.12
2017-11-11T10:43:42.900Z,56.31
2017-11-11T10:46:13.404Z,57.36
2017-11-11T10:48:43.697Z,57.95
2017-11-11T10:51:14.498Z,61.34
2017-11-11T10:53:44.603Z,62.59
2017-11-11T10:56:16.382Z,62.45
2017-11-11T10:58:49.170Z,62.57
2017-11-11T11:01:21.147Z,62.36
2017-11-11T11:03:53.200Z,62.67
2017-11-11T11:06:24.920Z,62.60
2017-11-11T11:08:55.764Z,62.77
2017-11-11T11:11:27.266Z,60.85
2017-11-11T11:13:59.023Z,61.64
2017-11-11T11:16:30.764Z,61.94
2017-11-11T11:19:02.587Z,62.63
2017-11-11T11:21:34.326Z,63.74
2017-11-11T11:24:06.046Z,62.95
2017-11-11T11:26:37.691Z,62.61
2017-11-11T11:29:09.206Z,62.06
2017-11-11T11:31:42.508Z,61.15
2017-11-11T11:34:15.280Z,61.90
2017-11-11T11:36:46.572Z,62.31
2017-11-11T11:39:17.856Z,62.11
2017-11-11T11:41:49.115Z,62.41
2017-11-11T11:44:19.061Z,62.74
2017-11-11T11:46:50.709Z,63.99
2017-11-11T11:49:23.190Z,63.71
2017-11-11T11:51:58.058Z,63.98
2017-11-11T11:54:30.035Z,63.90
2017-11-11T11:57:01.753Z,62.68
2017-11-11T11:59:33.597Z,61.44
2017-11-11T12:02:04.884Z,61.98
2017-11-11T12:04:36.793Z,60.92
2017-11-11T12:07:09.220Z,62.20
2017-11-11T12:09:39.380Z,62.99
2017-11-11T12:12:09.276Z,63.20
2017-11-11T12:14:39.321Z,64.11
2017-11-11T12:17:09.197Z,64.09
2017-11-11T12:19:39.033Z,65.21
2017-11-11T12:22:09.121Z,64.85
2017-11-11T12:24:39.292Z,64.54
2017-11-11T12:27:09.237Z,63.89
2017-11-11T12:29:40.401Z,63.59
2017-11-11T12:32:12.849Z,63.58
2017-11-11T12:34:45.064Z,63.38
2017-11-11T12:37:15.248Z,63.83
2017-11-11T12:39:45.593Z,64.48
2017-11-11T12:42:16.159Z,64.83
2017-11-11T12:44:52.119Z,65.19
2017-11-11T12:47:24.110Z,65.24
2017-11-11T12:49:55.930Z,65.39
2017-11-11T12:52:27.703Z,65.47
2017-11-11T12:54:57.520Z,64.95
2017-11-11T12:57:29.109Z,66.57
2017-11-11T13:00:00.241Z,65.87
2017-11-11T13:02:31.265Z,65.39
2017-11-11T13:05:03.602Z,66.02
2017-11-11T13:07:35.541Z,66.47
2017-11-11T13:10:08.398Z,67.56
2017-11-11T13:12:40.302Z,68.06
2017-11-11T13:15:11.789Z,69.17
2017-11-11T13:17:42.739Z,68.20
2017-11-11T13:20:12.649Z,68.57
2017-11-11T13:22:44.235Z,68.17
2017-11-11T13:25:14.854Z,68.64
2017-11-11T13:27:45.561Z,69.58
2017-11-11T13:30:16.580Z,70.48
2017-11-11T13:32:46.609Z,70.67
2017-11-11T13:35:17.258Z,71.69
2017-11-11T13:37:48.803Z,72.41
2017-11-11T13:40:19.188Z,72.17
2017-11-11T13:42:50.958Z,72.29
2017-11-11T13:45:21.725Z,71.68
2017-11-11T13:47:54.038Z,72.33
2017-11-11T13:50:25.221Z,72.69
2017-11-11T13:52:56.122Z,72.59
2017-11-11T13:55:27.464Z,71.90
2017-11-11T13:57:57.667Z,72.62
2017-11-11T14:00:28.993Z,73.70
2017-11-11T14:03:01.120Z,72.76
2017-11-11T14:05:32.171Z,72.63
2017-11-11T14:08:03.613Z,73.31
2017-11-11T14:10:33.530Z,74.60
2017-11-11T14:13:03.339Z,73.13
2017-11-11T14:15:33.133Z,74.23
2017-11-11T14:18:02.890Z,74.18
2017-11-11T14:20:32.636Z,74.15
2017-11-11T14:23:02.689Z,76.00
2017-11-11T14:25:32.565Z,75.47
2017-11-11T14:28:02.428Z,75.43
2017-11-11T14:31:09.999Z,75.26
2017-11-11T14:33:39.763Z,75.03
2017-11-11T14:36:09.492Z,76.45
2017-11-11T14:38:39.273Z,75.71
2017-11-11T14:41:08.908Z,76.53
2017-11-11T14:43:39.155Z,77.64
2017-11-11T14:46:08.914Z,77.83
2017-11-11T14:48:38.867Z,78.73
2017-11-11T14:51:08.617Z,79.69
2017-11-11T14:53:38.372Z,80.97
2017-11-11T14:56:08.137Z,82.18
2017-11-11T14:58:41.952Z,83.58
2017-11-11T15:01:11.725Z,83.05
2017-11-11T15:03:42.115Z,84.12
2017-11-11T15:06:11.852Z,84.09
2017-11-11T15:08:41.604Z,85.33
2017-11-11T15:11:11.362Z,86.70
2017-11-11T15:13:40.914Z,85.37
2017-11-11T15:16:10.484Z,86.67
2017-11-11T15:18:40.577Z,87.39
2017-11-11T15:21:10.402Z,87.75
2017-11-11T15:23:39.990Z,86.60
2017-11-11T15:26:09.765Z,87.08
2017-11-11T15:28:39.750Z,87.73
2017-11-11T15:31:09.340Z,87.50
2017-11-11T15:33:39.089Z,88.11
2017-11-11T15:36:08.818Z,88.12
2017-11-11T15:38:38.587Z,89.26
2017-11-11T15:41:08.352Z,88.23
2017-11-11T15:43:38.106Z,88.52
2017-11-11T15:46:08.228Z,88.99
2017-11-11T15:48:38.021Z,88.20
2017-11-11T15:51:07.775Z,89.73
2017-11-11T15:53:39.234Z,90.14
2017-11-11T15:56:09.175Z,89.25
2017-11-11T15:58:38.951Z,89.18
2017-11-11T16:01:08.590Z,90.51
2017-11-11T16:03:38.216Z,89.25
2017-11-11T16:06:07.814Z,91.02
2017-11-11T16:08:37.471Z,90.49
2017-11-11T16:11:07.389Z,91.74
2017-11-11T16:13:36.964Z,92.29
2017-11-11T16:16:07.280Z,92.68
2017-11-11T16:18:37.025Z,92.59
2017-11-11T16:21:07.863Z,92.09
2017-11-11T16:23:37.782Z,92.56
2017-11-11T16:26:07.640Z,92.92
2017-11-11T16:28:37.512Z,92.91
2017-11-11T16:31:07.418Z,92.98
2017-11-11T16:33:37.172Z,93.40
2017-11-11T16:36:07.022Z,93.45
2017-11-11T16:38:36.816Z,94.12
2017-11-11T16:41:06.658Z,93.57
2017-11-11T16:43:36.561Z,94.14
2017-11-11T16:46:06.335Z,94.59
2017-11-11T16:48:36.310Z,95.39
2017-11-11T16:51:06.388Z,95.63
2017-11-11T16:53:36.349Z,95.15
2017-11-11T16:56:06.253Z,95.26
2017-11-11T16:58:36.985Z,94.03
2017-11-11T17:01:06.858Z,94.67
2017-11-11T17:03:36.880Z,93.71
2017-11-11T17:06:10.891Z,95.08
2017-11-11T17:08:40.755Z,95.42
2017-11-11T17:11:14.854Z,95.82
2017-11-11T17:13:44.515Z,96.19
2017-11-11T17:16:14.508Z,96.79
2017-11-11T17:18:44.313Z,96.58
2017-11-11T17:21:14.067Z,96.45
2017-11-11T17:23:43.946Z,95.32
2017-11-11T17:26:13.791Z,95.13
2017-11-11T17:28:43.776Z,95.81
2017-11-11T17:31:13.656Z,95.55
2017-11-11T17:33:44.140Z,94.87
2017-11-11T17:36:13.968Z,95.57
2017-11-11T17:38:43.698Z,96.23
2017-11-11T17:41:13.432Z,96.04
2017-11-11T17:43:46.217Z,95.51
2017-11-11T17:46:15.983Z,95.25
2017-11-11T17:48:46.001Z,95.33
2017-11-11T17:51:15.755Z,96.28
2017-11-11T17:53:45.530Z,96.77
2017-11-11T17:56:15.297Z,96.88
2017-11-11T17:58:45.049Z,96.46
2017-11-11T18:01:14.806Z,97.24
2017-11-11T18:03:44.368Z,98.01
2017-11-11T18:06:13.927Z,97.06
2017-11-11T18:08:43.738Z,96.72
2017-11-11T18:11:13.570Z,96.95
2017-11-11T18:13:43.426Z,97.78
2017-11-11T18:16:13.185Z,98.87
2017-11-11T18:18:42.991Z,99.52
2017-11-11T18:21:12.759Z,100.00
2017-11-11T18:23:42.573Z,100.00
2017-11-11T18:26:12.353Z,100.00
2017-11-11T18:28:42.109Z,100.00
2017-11-11T18:31:11.939Z,98.40
2017-11-11T18:33:41.777Z,98.38
2017-11-11T18:36:11.554Z,99.94
2017-11-11T18:38:41.456Z,100.00
2017-11-11T18:41:11.282Z,100.00
2017-11-11T18:43:41.055Z,100.00
2017-11-11T18:46:10.617Z,100.00
2017-11-11T18:48:40.377Z,100.00
2017-11-11T18:51:10.184Z,100.00
2017-11-11T18:53:40.067Z,100.00
2017-11-11T18:56:10.089Z,100.00
2017-11-11T18:58:39.950Z,100.00
2017-11-11T19:01:09.762Z,100.00
2017-11-11T19:03:39.370Z,100.00
2017-11-11T19:06:09.139Z,100.00
2017-11-11T19:08:38.965Z,100.00
2017-11-11T19:11:08.819Z,100.00
2017-11-11T19:13:38.546Z,100.00
2017-11-11T19:16:08.925Z,100.00
2017-11-11T19:18:38.886Z,100.00
2017-11-11T19:21:08.832Z,100.00
2017-11-11T19:23:42.440Z,100.00
2017-11-11T19:26:12.261Z,100.00
2017-11-11T19:28:42.028Z,100.00
2017-11-11T19:31:11.824Z,100.00
2017-11-11T19:33:41.582Z,100.00
2017-11-11T19:36:11.465Z,100.00
2017-11-11T19:38:41.495Z,100.00
2017-11-11T19:41:11.262Z,100.00
2017-11-11T19:43:41.270Z,100.00
2017-11-11T19:46:11.073Z,100.00
2017-11-11T19:48:40.822Z,100.00
2017-11-11T19:51:10.704Z,100.00
2017-11-11T19:53:40.722Z,100.00
2017-11-11T19:56:10.607Z,100.00
2017-11-11T19:58:40.340Z,100.00
2017-11-11T20:01:10.143Z,100.00
2017-11-11T20:03:40.771Z,100.00
2017-11-11T20:06:10.602Z,100.00
2017-11-11T20:08:40.889Z,100.00
2017-11-11T20:11:10.718Z,100.00
2017-11-11T20:13:40.545Z,100.00
2017-11-11T20:16:10.296Z,100.00
2017-11-11T20:18:40.057Z,100.00
2017-11-11T20:21:09.878Z,100.00
2017-11-11T20:23:39.642Z,100.00
2017-11-11T20:26:09.402Z,100.00
2017-11-11T20:28:38.979Z,100.00
2017-11-11T20:31:08.981Z,100.00
2017-11-11T20:33:38.559Z,100.00
2017-11-11T20:36:08.339Z,100.00
2017-11-11T20:38:37.964Z,100.00
2017-11-11T20:41:07.737Z,100.00
2017-11-11T20:43:37.546Z,100.00
2017-11-11T20:46:07.316Z,100.00
2017-11-11T20:48:37.135Z,100.00
2017-11-11T20:51:10.990Z,100.00
2017-11-11T20:53:40.773Z,100.00
2017-11-11T20:56:10.343Z,100.00
2017-11-11T20:58:40.145Z,100.00
2017-11-11T21:01:10.031Z,100.00
2017-11-11T21:03:39.830Z,100.00
2017-11-11T21:06:09.855Z,100.00
2017-11-11T21:08:39.615Z,100.00
2017-11-11T21:11:09.574Z,100.00
2017-11-11T21:13:39.341Z,100.00
2017-11-11T21:16:20.112Z,100.00
2017-11-11T21:18:52.260Z,100.00
2017-11-11T21:21:21.457Z,100.00
2017-11-11T21:23:50.928Z,100.00
2017-11-11T21:26:20.703Z,100.00
2017-11-11T21:28:58.288Z,100.00
2017-11-11T21:31:30.340Z,100.00
2017-11-11T21:33:59.932Z,100.00
2017-11-11T21:36:29.747Z,100.00
2017-11-11T21:38:59.555Z,100.00
2017-11-11T21:41:29.333Z,100.00
2017-11-11T21:44:00.279Z,100.00
2017-11-11T21:46:30.361Z,100.00
2017-11-11T21:49:09.065Z,100.00
2017-11-11T21:51:41.404Z,100.00
2017-11-11T21:54:10.986Z,100.00
2017-11-11T21:56:40.751Z,100.00
2017-11-11T21:59:10.591Z,100.00
2017-11-11T22:01:40.375Z,100.00
2017-11-11T22:04:10.199Z,100.00
2017-11-11T22:06:39.965Z,100.00
2017-11-11T22:09:09.922Z,100.00
2017-11-11T22:11:39.681Z,100.00
2017-11-11T22:14:09.483Z,100.00
2017-11-11T22:16:39.258Z,100.00
2017-11-11T22:19:09.165Z,100.00
2017-11-11T22:21:38.944Z,100.00
2017-11-11T22:24:08.695Z,100.00
2017-11-11T22:26:38.449Z,100.00
2017-11-11T22:29:08.295Z,100.00
2017-11-11T22:31:38.159Z,100.00
2017-11-11T22:34:08.056Z,100.00
2017-11-11T22:36:38.004Z,100.00
2017-11-11T22:39:07.746Z,100.00
2017-11-11T22:41:37.491Z,100.00
2017-11-11T22:44:08.769Z,100.00
2017-11-11T22:46:38.538Z,100.00
2017-11-11T22:49:08.369Z,100.00
2017-11-11T22:51:38.441Z,100.00
2017-11-11T22:54:08.345Z,100.00
2017-11-11T22:56:38.454Z,100.00
2017-11-11T22:59:08.293Z,100.00
2017-11-11T23:01:38.161Z,100.00
2017-11-11T23:04:08.178Z,100.00
2017-11-11T23:06:39.529Z,100.00
2017-11-11T23:09:09.683Z,100.00
2017-11-11T23:11:39.541Z,100.00
2017-11-11T23:14:09.358Z,100.00
2017-11-11T23:16:39.116Z,100.00
2017-11-11T23:19:09.588Z,100.00
2017-11-11T23:21:39.753Z,100.00
2017-11-11T23:24:10.391Z,100.00
2017-11-11T23:26:40.765Z,100.00
2017-11-11T23:29:11.934Z,100.00
2017-11-11T23:31:42.430Z,100.00
2017-11-11T23:34:12.675Z,100.00
2017-11-11T23:36:42.594Z,100.00
2017-11-11T23:39:15.626Z,100.00
2017-11-11T23:41:47.988Z,100.00
2017-11-11T23:44:18.025Z,100.00
2017-11-11T23:46:49.341Z,100.00
2017-11-11T23:49:19.633Z,100.00
2017-11-11T23:51:50.265Z,100.00
2017-11-11T23:54:20.782Z,100.00
2017-11-11T23:56:51.210Z,100.00
2017-11-11T23:59:24.794Z,100.00
